createdAt,value
2017-12-26T00:00:46.425Z,5.20
2017-12-26T00:03:14.761Z,5.20
2017-12-26T00:05:43.071Z,5.30
2017-12-26T00:08:11.421Z,5.30
2017-12-26T00:10:39.711Z,5.40
2017-12-26T00:13:08.021Z,5.40
2017-12-26T00:15:36.333Z,5.40
2017-12-26T00:18:04.726Z,5.40
2017-12-26T00:20:33.027Z,5.50
2017-12-26T00:23:01.600Z,5.50
2017-12-26T00:25:29.905Z,5.50
2017-12-26T00:27:58.217Z,5.50
2017-12-26T00:30:26.524Z,5.50
2017-12-26T00:32:54.829Z,5.60
2017-12-26T00:35:23.131Z,5.60
2017-12-26T00:37:51.439Z,5.60
2017-12-26T00:40:19.747Z,5.60
2017-12-26T00:42:48.056Z,5.60
2017-12-26T00:45:16.362Z,5.70
2017-12-26T00:47:45.440Z,5.70
2017-12-26T00:50:13.777Z,5.70
2017-12-26T00:52:42.095Z,5.70
2017-12-26T00:55:10.415Z,5.70
2017-12-26T00:57:39.472Z,5.80
2017-12-26T01:00:08.436Z,5.80
2017-12-26T01:02:36.737Z,5.80
2017-12-26T01:05:05.029Z,5.80
2017-12-26T01:07:33.334Z,5.80
2017-12-26T01:10:02.407Z,5.80
2017-12-26T01:12:30.716Z,5.80
2017-12-26T01:14:59.039Z,5.80
2017-12-26T01:17:27.341Z,5.80
2017-12-26T01:19:55.644Z,5.90
2017-12-26T01:22:23.946Z,5.80
2017-12-26T01:24:52.319Z,5.80
2017-12-26T01:27:20.615Z,5.80
2017-12-26T01:29:49.687Z,5.80
2017-12-26T01:32:17.984Z,5.80
2017-12-26T01:34:46.320Z,5.80
2017-12-26T01:37:15.393Z,5.80
2017-12-26T01:39:44.455Z,5.80
2017-12-26T01:42:12.751Z,5.80
2017-12-26T01:44:41.070Z,5.70
2017-12-26T01:47:09.363Z,5.70
2017-12-26T01:49:38.279Z,5.70
2017-12-26T01:52:06.575Z,5.70
2017-12-26T01:54:34.878Z,5.70
2017-12-26T01:57:03.956Z,5.70
2017-12-26T01:59:32.260Z,5.70
2017-12-26T02:02:01.316Z,5.70
2017-12-26T02:04:29.622Z,5.70
2017-12-26T02:06:57.920Z,5.70
2017-12-26T02:09:27.078Z,5.70
2017-12-26T02:11:55.378Z,5.70
2017-12-26T02:14:23.678Z,5.70
2017-12-26T02:16:51.978Z,5.70
2017-12-26T02:19:20.259Z,5.60
2017-12-26T02:21:49.317Z,5.50
2017-12-26T02:24:17.608Z,5.50
2017-12-26T02:26:45.900Z,5.40
2017-12-26T02:29:14.209Z,5.30
2017-12-26T02:31:42.550Z,5.30
2017-12-26T02:34:10.883Z,5.20
2017-12-26T02:36:39.175Z,5.20
2017-12-26T02:39:07.482Z,5.10
2017-12-26T02:41:35.805Z,5.00
2017-12-26T02:44:04.132Z,5.00
2017-12-26T02:46:32.420Z,4.90
2017-12-26T02:49:00.825Z,4.80
2017-12-26T02:51:29.152Z,4.80
2017-12-26T02:53:57.460Z,4.80
2017-12-26T02:56:25.773Z,4.80
2017-12-26T02:58:54.082Z,4.80
2017-12-26T03:01:23.172Z,4.80
2017-12-26T03:03:52.224Z,4.80
2017-12-26T03:06:20.529Z,4.80
2017-12-26T03:08:49.682Z,4.90
2017-12-26T03:11:17.987Z,4.90
2017-12-26T03:13:46.330Z,5.00
2017-12-26T03:16:14.626Z,5.00
2017-12-26T03:18:42.914Z,5.00
2017-12-26T03:21:11.207Z,5.00
2017-12-26T03:23:39.540Z,5.10
2017-12-26T03:26:08.600Z,5.10
2017-12-26T03:28:36.888Z,5.10
2017-12-26T03:31:05.216Z,5.10
2017-12-26T03:33:33.516Z,5.20
2017-12-26T03:36:01.868Z,5.20
2017-12-26T03:38:30.168Z,5.30
2017-12-26T03:40:58.485Z,5.30
2017-12-26T03:43:26.798Z,5.30
2017-12-26T03:45:55.108Z,5.40
2017-12-26T03:48:23.423Z,5.40
2017-12-26T03:50:51.748Z,5.40
2017-12-26T03:53:20.847Z,5.50
2017-12-26T03:55:49.905Z,5.50
2017-12-26T03:58:18.196Z,5.50
2017-12-26T04:00:46.504Z,5.50
2017-12-26T04:03:14.807Z,5.50
2017-12-26T04:05:43.892Z,5.60
2017-12-26T04:08:12.955Z,5.60
2017-12-26T04:10:42.844Z,5.70
2017-12-26T04:13:11.140Z,5.60
2017-12-26T04:15:39.442Z,5.70
2017-12-26T04:18:07.758Z,5.70
2017-12-26T04:20:36.830Z,5.80
2017-12-26T04:23:05.222Z,5.80
2017-12-26T04:25:33.529Z,5.80
2017-12-26T04:28:01.850Z,5.90
2017-12-26T04:30:30.162Z,5.90
2017-12-26T04:32:58.475Z,6.00
2017-12-26T04:35:26.806Z,6.10
2017-12-26T04:37:55.130Z,6.20
2017-12-26T04:40:23.526Z,6.30
2017-12-26T04:42:51.844Z,6.30
2017-12-26T04:45:20.160Z,6.40
2017-12-26T04:47:48.468Z,6.50
2017-12-26T04:50:16.778Z,6.50
2017-12-26T04:52:45.152Z,6.60
2017-12-26T04:55:13.531Z,6.60
2017-12-26T04:57:41.810Z,6.70
2017-12-26T05:00:10.114Z,6.70
2017-12-26T05:02:39.183Z,6.60
2017-12-26T05:05:07.484Z,6.60
2017-12-26T05:07:35.837Z,6.60
2017-12-26T05:10:04.144Z,6.60
2017-12-26T05:12:32.456Z,6.50
2017-12-26T05:15:00.767Z,6.50
2017-12-26T05:17:29.829Z,6.30
2017-12-26T05:19:58.141Z,6.30
2017-12-26T05:22:27.226Z,6.30
2017-12-26T05:24:55.543Z,6.30
2017-12-26T05:27:23.862Z,6.30
2017-12-26T05:29:52.159Z,6.30
2017-12-26T05:32:20.466Z,6.30
2017-12-26T05:34:49.515Z,6.20
2017-12-26T05:37:17.815Z,6.20
2017-12-26T05:39:46.130Z,6.20
2017-12-26T05:42:15.190Z,6.20
2017-12-26T05:44:43.491Z,6.20
2017-12-26T05:47:12.303Z,6.20
2017-12-26T05:49:41.365Z,6.20
2017-12-26T05:52:09.674Z,6.20
2017-12-26T05:54:38.802Z,6.20
2017-12-26T05:57:07.116Z,6.20
2017-12-26T05:59:35.403Z,6.20
2017-12-26T06:02:03.696Z,6.20
2017-12-26T06:04:32.085Z,6.20
2017-12-26T06:07:00.386Z,6.20
2017-12-26T06:09:28.695Z,6.20
2017-12-26T06:11:57.013Z,6.20
2017-12-26T06:14:25.347Z,6.20
2017-12-26T06:16:54.411Z,6.20
2017-12-26T06:19:22.701Z,6.20
2017-12-26T06:21:51.001Z,6.20
2017-12-26T06:24:20.062Z,6.20
2017-12-26T06:26:48.376Z,6.20
2017-12-26T06:29:17.602Z,6.20
2017-12-26T06:31:46.549Z,6.20
2017-12-26T06:34:15.076Z,6.20
2017-12-26T06:36:44.163Z,6.20
2017-12-26T06:39:13.283Z,6.20
2017-12-26T06:41:41.613Z,6.20
2017-12-26T06:44:09.941Z,6.20
2017-12-26T06:46:38.256Z,6.20
2017-12-26T06:49:06.624Z,6.30
2017-12-26T06:51:34.944Z,6.30
2017-12-26T06:54:03.260Z,6.30
2017-12-26T06:56:34.170Z,6.30
2017-12-26T06:59:02.533Z,6.20
2017-12-26T07:01:30.857Z,6.30
2017-12-26T07:03:59.192Z,6.30
2017-12-26T07:06:27.744Z,6.20
2017-12-26T07:08:56.099Z,6.20
2017-12-26T07:11:25.261Z,6.20
2017-12-26T07:13:53.619Z,6.10
2017-12-26T07:16:21.931Z,6.10
2017-12-26T07:18:50.262Z,6.20
2017-12-26T07:21:24.937Z,6.20
2017-12-26T07:23:53.314Z,6.20
2017-12-26T07:26:21.647Z,6.20
2017-12-26T07:28:50.808Z,6.30
2017-12-26T07:31:19.337Z,6.20
2017-12-26T07:33:48.439Z,6.30
2017-12-26T07:36:18.316Z,6.30
2017-12-26T07:38:52.175Z,6.30
2017-12-26T07:41:20.512Z,6.30
2017-12-26T07:43:48.815Z,6.40
2017-12-26T07:46:17.144Z,6.40
2017-12-26T07:48:45.477Z,6.30
2017-12-26T07:51:13.789Z,6.30
2017-12-26T07:53:42.091Z,6.20
2017-12-26T07:56:10.421Z,6.10
2017-12-26T07:58:38.724Z,6.10
2017-12-26T08:01:08.353Z,6.10
2017-12-26T08:03:36.685Z,6.10
2017-12-26T08:06:05.004Z,6.10
2017-12-26T08:08:33.449Z,6.10
2017-12-26T08:11:01.764Z,6.10
2017-12-26T08:13:30.955Z,6.10
2017-12-26T08:16:00.068Z,6.00
2017-12-26T08:18:29.170Z,6.00
2017-12-26T08:20:57.518Z,5.90
2017-12-26T08:23:25.821Z,5.90
2017-12-26T08:25:54.181Z,6.00
2017-12-26T08:28:23.088Z,6.00
2017-12-26T08:30:52.209Z,6.00
2017-12-26T08:33:20.530Z,6.00
2017-12-26T08:35:48.837Z,6.00
2017-12-26T08:38:17.148Z,5.90
2017-12-26T08:40:46.233Z,6.00
2017-12-26T08:43:14.579Z,6.00
2017-12-26T08:45:42.866Z,6.00
2017-12-26T08:48:11.171Z,6.00
2017-12-26T08:50:39.471Z,6.00
2017-12-26T08:53:08.535Z,6.00
2017-12-26T08:55:36.859Z,6.00
2017-12-26T08:58:05.919Z,6.00
2017-12-26T09:00:34.217Z,6.00
2017-12-26T09:03:03.169Z,6.00
2017-12-26T09:05:31.449Z,6.00
2017-12-26T09:07:59.765Z,6.00
2017-12-26T09:10:28.069Z,6.10
2017-12-26T09:12:57.144Z,6.30
2017-12-26T09:15:25.435Z,6.30
2017-12-26T09:17:54.534Z,6.40
2017-12-26T09:20:22.826Z,6.40
2017-12-26T09:22:51.881Z,6.40
2017-12-26T09:25:20.171Z,6.40
2017-12-26T09:27:48.457Z,6.40
2017-12-26T09:30:16.753Z,6.50
2017-12-26T09:32:45.066Z,6.60
2017-12-26T09:35:13.363Z,6.60
2017-12-26T09:37:41.709Z,6.70
2017-12-26T09:40:10.784Z,6.80
2017-12-26T09:42:39.087Z,6.90
2017-12-26T09:45:08.129Z,6.80
2017-12-26T09:47:37.415Z,6.80
2017-12-26T09:50:05.699Z,6.70
2017-12-26T09:52:33.995Z,6.60
2017-12-26T09:55:02.309Z,6.50
2017-12-26T09:57:30.646Z,6.50
2017-12-26T09:59:58.960Z,6.50
2017-12-26T10:02:27.272Z,6.50
2017-12-26T10:04:55.689Z,6.60
2017-12-26T10:07:23.978Z,6.70
2017-12-26T10:09:52.370Z,6.90
2017-12-26T10:12:20.648Z,6.90
2017-12-26T10:14:48.925Z,6.90
2017-12-26T10:17:17.223Z,6.90
2017-12-26T10:19:45.503Z,6.90
2017-12-26T10:22:13.776Z,6.90
2017-12-26T10:24:42.091Z,6.90
2017-12-26T10:27:10.458Z,7.00
2017-12-26T10:29:38.791Z,7.20
2017-12-26T10:32:07.849Z,7.70
2017-12-26T10:34:36.222Z,7.80
2017-12-26T10:37:04.540Z,8.00
2017-12-26T10:39:33.608Z,8.30
2017-12-26T10:42:01.912Z,8.30
2017-12-26T10:44:31.445Z,8.30
2017-12-26T10:47:00.531Z,8.10
2017-12-26T10:49:29.586Z,8.00
2017-12-26T10:51:57.886Z,8.00
2017-12-26T10:54:26.181Z,8.00
2017-12-26T10:56:54.495Z,8.00
2017-12-26T10:59:23.618Z,8.10
2017-12-26T11:01:51.921Z,8.10
2017-12-26T11:04:20.225Z,8.00
2017-12-26T11:06:49.291Z,7.60
2017-12-26T11:09:17.605Z,7.60
2017-12-26T11:11:45.902Z,7.50
2017-12-26T11:14:14.991Z,7.50
2017-12-26T11:16:43.281Z,7.50
2017-12-26T11:19:12.334Z,7.30
2017-12-26T11:21:41.850Z,7.30
2017-12-26T11:24:10.189Z,7.20
2017-12-26T11:26:38.504Z,7.00
2017-12-26T11:29:06.795Z,6.90
2017-12-26T11:31:35.083Z,6.80
2017-12-26T11:34:03.373Z,6.80
2017-12-26T11:36:31.670Z,6.70
2017-12-26T11:39:00.752Z,7.00
2017-12-26T11:41:29.047Z,7.00
2017-12-26T11:43:57.443Z,7.20
2017-12-26T11:46:26.197Z,7.50
2017-12-26T11:48:54.483Z,7.80
2017-12-26T11:51:22.813Z,8.20
2017-12-26T11:53:51.889Z,8.50
2017-12-26T11:56:21.777Z,8.70
2017-12-26T11:58:50.077Z,8.80
2017-12-26T12:01:18.361Z,8.90
2017-12-26T12:03:46.673Z,8.90
2017-12-26T12:06:15.096Z,9.00
2017-12-26T12:08:43.387Z,9.20
2017-12-26T12:11:11.682Z,9.30
2017-12-26T12:13:40.026Z,9.30
2017-12-26T12:16:08.336Z,9.20
2017-12-26T12:18:36.977Z,9.30
2017-12-26T12:21:05.280Z,9.20
2017-12-26T12:23:33.595Z,9.30
2017-12-26T12:26:02.696Z,9.70
2017-12-26T12:28:31.008Z,9.70
2017-12-26T12:31:00.122Z,9.20
2017-12-26T12:33:28.445Z,9.20
2017-12-26T12:35:56.768Z,9.10
2017-12-26T12:38:25.065Z,9.00
2017-12-26T12:40:53.383Z,9.00
2017-12-26T12:43:22.444Z,8.60
2017-12-26T12:45:50.740Z,8.60
2017-12-26T12:48:19.039Z,8.40
2017-12-26T12:50:48.853Z,8.40
2017-12-26T12:53:17.146Z,8.30
2017-12-26T12:55:45.432Z,8.30
2017-12-26T12:58:14.497Z,8.30
2017-12-26T13:00:42.790Z,8.20
2017-12-26T13:03:11.084Z,8.20
2017-12-26T13:05:39.396Z,8.30
2017-12-26T13:08:08.468Z,8.20
2017-12-26T13:10:36.768Z,8.20
2017-12-26T13:13:05.139Z,8.20
2017-12-26T13:15:33.440Z,8.30
2017-12-26T13:18:02.514Z,8.40
2017-12-26T13:20:30.837Z,8.30
2017-12-26T13:22:59.894Z,8.20
2017-12-26T13:25:28.194Z,8.20
2017-12-26T13:27:57.269Z,8.20
2017-12-26T13:30:25.582Z,8.20
2017-12-26T13:32:54.648Z,8.30
2017-12-26T13:35:22.943Z,8.30
2017-12-26T13:37:51.245Z,8.40
2017-12-26T13:40:20.332Z,8.50
2017-12-26T13:42:48.650Z,8.50
2017-12-26T13:45:16.946Z,8.60
2017-12-26T13:47:45.266Z,8.50
2017-12-26T13:50:13.602Z,8.50
2017-12-26T13:52:42.635Z,8.40
2017-12-26T13:55:10.936Z,8.40
2017-12-26T13:57:39.688Z,8.30
2017-12-26T14:00:07.972Z,8.20
2017-12-26T14:02:36.266Z,8.20
2017-12-26T14:05:04.567Z,8.10
2017-12-26T14:07:32.896Z,8.00
2017-12-26T14:10:01.225Z,8.00
2017-12-26T14:12:29.532Z,7.90
2017-12-26T14:14:58.602Z,7.70
2017-12-26T14:17:26.888Z,7.70
2017-12-26T14:19:55.180Z,7.70
2017-12-26T14:22:24.306Z,7.70
2017-12-26T14:24:52.600Z,7.70
2017-12-26T14:27:20.951Z,7.70
2017-12-26T14:29:50.046Z,7.60
2017-12-26T14:32:19.132Z,7.60
2017-12-26T14:34:47.455Z,7.50
2017-12-26T14:37:15.782Z,7.60
2017-12-26T14:39:44.847Z,7.50
2017-12-26T14:42:13.141Z,7.50
2017-12-26T14:44:41.448Z,7.50
2017-12-26T14:47:09.755Z,7.50
2017-12-26T14:49:38.066Z,7.60
2017-12-26T14:52:06.363Z,7.60
2017-12-26T14:54:34.659Z,7.60
2017-12-26T14:57:02.956Z,7.50
2017-12-26T14:59:31.260Z,7.50
2017-12-26T15:02:00.388Z,7.50
2017-12-26T15:04:28.677Z,7.40
2017-12-26T15:06:56.981Z,7.50
2017-12-26T15:09:25.284Z,7.50
2017-12-26T15:11:53.590Z,7.50
2017-12-26T15:14:22.654Z,7.50
2017-12-26T15:16:50.972Z,7.50
2017-12-26T15:19:20.036Z,7.40
2017-12-26T15:21:48.327Z,7.40
2017-12-26T15:24:16.656Z,7.40
2017-12-26T15:26:44.958Z,7.30
2017-12-26T15:29:14.040Z,7.10
2017-12-26T15:31:42.339Z,7.00
2017-12-26T15:34:10.679Z,7.00
2017-12-26T15:36:39.738Z,6.80
2017-12-26T15:39:08.082Z,6.80
2017-12-26T15:41:36.392Z,6.70
2017-12-26T15:44:04.722Z,6.60
2017-12-26T15:46:33.825Z,6.50
2017-12-26T15:49:02.928Z,6.40
2017-12-26T15:51:31.981Z,6.40
2017-12-26T15:54:00.288Z,6.30
2017-12-26T15:56:29.380Z,6.20
2017-12-26T15:58:57.671Z,6.30
2017-12-26T16:01:26.112Z,6.20
2017-12-26T16:03:54.407Z,6.20
2017-12-26T16:06:22.710Z,6.20
2017-12-26T16:08:51.002Z,6.20
2017-12-26T16:11:20.092Z,6.20
2017-12-26T16:13:49.193Z,6.20
2017-12-26T16:16:18.290Z,6.20
2017-12-26T16:18:46.667Z,6.30
2017-12-26T16:21:14.966Z,6.30
2017-12-26T16:23:44.026Z,6.30
2017-12-26T16:26:12.335Z,6.30
2017-12-26T16:28:40.645Z,6.30
2017-12-26T16:31:08.958Z,6.20
2017-12-26T16:33:37.271Z,6.20
2017-12-26T16:36:05.574Z,6.10
2017-12-26T16:38:33.869Z,6.10
2017-12-26T16:41:02.184Z,6.00
2017-12-26T16:43:30.470Z,6.00
2017-12-26T16:45:58.758Z,6.00
2017-12-26T16:48:27.060Z,5.90
2017-12-26T16:50:55.351Z,5.80
2017-12-26T16:53:24.442Z,5.80
2017-12-26T16:55:52.768Z,5.80
2017-12-26T16:58:21.056Z,5.70
2017-12-26T17:00:50.136Z,5.70
2017-12-26T17:03:19.211Z,5.60
2017-12-26T17:05:47.519Z,5.60
2017-12-26T17:08:15.809Z,5.60
2017-12-26T17:10:44.104Z,5.60
2017-12-26T17:13:12.408Z,5.50
2017-12-26T17:15:40.715Z,5.50
2017-12-26T17:18:09.006Z,5.50
2017-12-26T17:20:38.093Z,5.40
2017-12-26T17:23:06.390Z,5.40
2017-12-26T17:25:35.472Z,5.40
2017-12-26T17:28:03.764Z,5.40
2017-12-26T17:30:32.070Z,5.40
2017-12-26T17:33:00.376Z,5.40
2017-12-26T17:35:28.670Z,5.50
2017-12-26T17:37:57.000Z,5.50
2017-12-26T17:40:26.064Z,5.70
2017-12-26T17:42:54.379Z,5.70
2017-12-26T17:45:23.444Z,5.80
2017-12-26T17:47:51.759Z,5.80
2017-12-26T17:50:20.857Z,5.70
2017-12-26T17:52:49.913Z,5.70
2017-12-26T17:55:18.208Z,5.70
2017-12-26T17:57:46.503Z,5.70
2017-12-26T18:00:14.800Z,5.80
2017-12-26T18:02:43.866Z,5.90
2017-12-26T18:05:12.166Z,5.90
2017-12-26T18:07:40.485Z,6.00
2017-12-26T18:10:08.777Z,6.00
2017-12-26T18:12:37.099Z,6.00
2017-12-26T18:15:05.429Z,6.00
2017-12-26T18:17:33.793Z,6.00
2017-12-26T18:20:02.108Z,6.00
2017-12-26T18:22:30.397Z,6.00
2017-12-26T18:24:59.521Z,6.00
2017-12-26T18:27:27.812Z,6.00
2017-12-26T18:29:56.111Z,6.00
2017-12-26T18:32:25.190Z,6.00
2017-12-26T18:34:54.237Z,6.00
2017-12-26T18:37:22.529Z,6.00
2017-12-26T18:39:50.817Z,6.00
2017-12-26T18:42:19.140Z,6.00
2017-12-26T18:44:47.454Z,6.10
2017-12-26T18:47:15.732Z,6.00
2017-12-26T18:49:44.773Z,6.00
2017-12-26T18:52:13.062Z,6.00
2017-12-26T18:54:41.347Z,6.00
2017-12-26T18:57:09.647Z,6.00
2017-12-26T18:59:37.959Z,6.00
2017-12-26T19:02:06.247Z,6.00
2017-12-26T19:04:34.551Z,6.00
2017-12-26T19:07:02.851Z,6.00
2017-12-26T19:09:31.157Z,6.00
2017-12-26T19:11:59.507Z,6.00
2017-12-26T19:14:27.822Z,5.90
2017-12-26T19:16:56.875Z,5.80
2017-12-26T19:19:25.169Z,5.80
2017-12-26T19:21:53.493Z,5.80
2017-12-26T19:24:22.571Z,5.80
2017-12-26T19:26:50.855Z,5.80
2017-12-26T19:29:19.153Z,5.70
2017-12-26T19:31:48.219Z,5.60
2017-12-26T19:34:16.511Z,5.60
2017-12-26T19:36:44.827Z,5.60
2017-12-26T19:39:13.179Z,5.50
2017-12-26T19:41:41.490Z,5.40
2017-12-26T19:44:09.777Z,5.40
2017-12-26T19:46:38.079Z,5.40
2017-12-26T19:49:06.380Z,5.40
2017-12-26T19:51:34.690Z,5.40
2017-12-26T19:54:03.065Z,5.40
2017-12-26T19:56:31.365Z,5.40
2017-12-26T19:59:00.438Z,5.40
2017-12-26T20:01:28.735Z,5.40
2017-12-26T20:03:57.814Z,5.50
2017-12-26T20:06:26.093Z,5.40
2017-12-26T20:08:54.445Z,5.40
2017-12-26T20:11:22.755Z,5.40
2017-12-26T20:13:51.074Z,5.40
2017-12-26T20:16:20.139Z,5.30
2017-12-26T20:18:48.440Z,5.30
2017-12-26T20:21:17.600Z,5.30
2017-12-26T20:23:45.935Z,5.20
2017-12-26T20:26:15.050Z,5.30
2017-12-26T20:28:48.877Z,5.30
2017-12-26T20:31:17.183Z,5.40
2017-12-26T20:33:45.498Z,5.40
2017-12-26T20:36:14.672Z,5.50
2017-12-26T20:38:42.966Z,5.40
2017-12-26T20:41:11.257Z,5.50
2017-12-26T20:43:40.318Z,5.50
2017-12-26T20:46:08.637Z,5.50
2017-12-26T20:48:38.345Z,5.60
2017-12-26T20:51:07.415Z,5.60
2017-12-26T20:53:35.728Z,5.60
2017-12-26T20:56:04.813Z,5.60
2017-12-26T20:58:33.881Z,5.50
2017-12-26T21:01:02.366Z,5.50
2017-12-26T21:03:30.670Z,5.50
2017-12-26T21:05:58.955Z,5.40
2017-12-26T21:08:27.265Z,5.30
2017-12-26T21:10:56.326Z,5.20
2017-12-26T21:13:25.385Z,5.20
2017-12-26T21:15:53.669Z,5.10
2017-12-26T21:18:21.973Z,5.20
2017-12-26T21:20:50.268Z,5.20
2017-12-26T21:23:18.588Z,5.20
2017-12-26T21:25:47.647Z,5.20
2017-12-26T21:28:15.949Z,5.20
2017-12-26T21:30:44.308Z,5.20
2017-12-26T21:33:12.595Z,5.30
2017-12-26T21:35:40.901Z,5.30
2017-12-26T21:38:09.225Z,5.30
2017-12-26T21:40:37.514Z,5.40
2017-12-26T21:43:06.597Z,5.40
2017-12-26T21:45:34.891Z,5.40
2017-12-26T21:48:03.220Z,5.50
2017-12-26T21:50:31.559Z,5.50
2017-12-26T21:52:59.885Z,5.50
2017-12-26T21:55:28.183Z,5.50
2017-12-26T21:57:57.233Z,5.50
2017-12-26T22:00:25.527Z,5.50
2017-12-26T22:02:53.821Z,5.50
2017-12-26T22:05:22.125Z,5.50
2017-12-26T22:07:51.187Z,5.60
2017-12-26T22:10:19.483Z,5.60
2017-12-26T22:12:47.774Z,5.60
2017-12-26T22:15:16.101Z,5.60
2017-12-26T22:17:44.395Z,5.60
2017-12-26T22:20:12.700Z,5.70
2017-12-26T22:22:41.014Z,5.70
2017-12-26T22:25:10.073Z,5.60
2017-12-26T22:27:38.515Z,5.60
2017-12-26T22:30:06.809Z,5.70
2017-12-26T22:32:35.099Z,5.70
2017-12-26T22:35:03.384Z,5.70
2017-12-26T22:37:31.704Z,5.70
2017-12-26T22:39:59.992Z,5.70
2017-12-26T22:42:28.288Z,5.70
2017-12-26T22:44:57.335Z,5.70
2017-12-26T22:47:25.628Z,5.70
2017-12-26T22:49:53.947Z,5.70
2017-12-26T22:52:23.009Z,5.80
2017-12-26T22:54:51.280Z,5.70
2017-12-26T22:57:19.593Z,5.80
2017-12-26T22:59:47.888Z,5.80
2017-12-26T23:02:16.998Z,5.80
2017-12-26T23:04:45.290Z,5.70
2017-12-26T23:07:13.593Z,5.70
2017-12-26T23:09:41.916Z,5.70
2017-12-26T23:12:10.204Z,5.70
2017-12-26T23:14:43.946Z,5.70
2017-12-26T23:17:17.772Z,5.70
2017-12-26T23:19:51.460Z,5.70
2017-12-26T23:22:19.778Z,5.70
2017-12-26T23:24:53.474Z,5.70
2017-12-26T23:27:27.189Z,5.80
2017-12-26T23:33:08.810Z,5.80
2017-12-26T23:35:42.683Z,5.90
2017-12-26T23:38:17.220Z,5.90
2017-12-26T23:44:03.938Z,5.90
2017-12-26T23:46:37.810Z,5.90
2017-12-26T23:49:11.638Z,5.90
2017-12-26T23:51:45.474Z,5.90
2017-12-26T23:54:20.060Z,5.90
2017-12-26T23:56:53.843Z,5.90
